Time;durP1;ratioP1;P1;durP2;ratioP2;P2;SDS_P1;SDS_P2;PMS_P1;PMS_P2;Temp;Humidity;BMP_temperature;BMP_pressure;BME280_temperature;BME280_humidity;BME280_pressure;Samples;Min_cycle;Max_cycle;Signal;HPM_P1;HPM_P2
2022/01/01 00:00:47;;;;;;;29.00;8.50;;;14.00;99.90;;;;;;5085753;28;20023;-76
2022/01/01 00:03:13;;;;;;;28.42;8.20;;;14.00;99.90;;;;;;5085757;28;20046;-77
2022/01/01 00:05:39;;;;;;;30.08;9.10;;;14.10;99.90;;;;;;5067718;28;20308;-76
2022/01/01 00:08:06;;;;;;;61.40;32.92;;;14.10;99.90;;;;;;5085855;28;20118;-77
2022/01/01 00:10:32;;;;;;;52.15;25.20;;;14.20;99.90;;;;;;5084748;28;20082;-77
2022/01/01 00:12:58;;;;;;;45.55;24.60;;;14.20;99.90;;;;;;5085700;28;20299;-76
2022/01/01 00:15:23;;;;;;;42.85;19.02;;;14.20;99.90;;;;;;5085561;28;20092;-76
2022/01/01 00:17:49;;;;;;;36.63;11.65;;;14.30;99.90;;;;;;5085284;28;20310;-77
2022/01/01 00:20:15;;;;;;;37.35;12.50;;;14.30;99.90;;;;;;5085411;28;20016;-77
2022/01/01 00:22:42;;;;;;;26.30;11.43;;;14.30;99.90;;;;;;5085284;28;20025;-76
2022/01/01 00:25:09;;;;;;;25.15;8.98;;;14.30;99.90;;;;;;5084129;28;20027;-77
2022/01/01 00:27:35;;;;;;;22.83;8.85;;;14.30;99.90;;;;;;5068076;28;20377;-78
2022/01/01 00:30:01;;;;;;;28.20;9.10;;;14.20;99.90;;;;;;5085434;28;20036;-78
2022/01/01 00:32:27;;;;;;;25.83;8.18;;;14.20;99.90;;;;;;5083262;28;20327;-77
2022/01/01 00:34:52;;;;;;;24.65;8.20;;;14.30;99.90;;;;;;5083591;28;20020;-76
2022/01/01 00:37:20;;;;;;;32.95;8.25;;;14.30;99.90;;;;;;5084343;28;20027;-77
2022/01/01 00:39:46;;;;;;;26.52;6.85;;;14.20;99.90;;;;;;5083693;28;20025;-78
2022/01/01 00:42:13;;;;;;;31.58;8.27;;;14.20;99.90;;;;;;5084219;28;20025;-74
2022/01/01 00:44:38;;;;;;;22.30;8.02;;;14.20;99.90;;;;;;5084130;28;20039;-76
2022/01/01 00:47:04;;;;;;;21.98;8.35;;;14.20;99.90;;;;;;5084649;28;20024;-74
2022/01/01 00:49:30;;;;;;;23.08;7.65;;;14.20;99.90;;;;;;5082330;28;20114;-76
2022/01/01 00:51:56;;;;;;;26.73;7.70;;;14.20;99.90;;;;;;5083895;28;20054;-76
2022/01/01 00:54:22;;;;;;;22.35;7.07;;;14.10;99.90;;;;;;5084858;28;20024;-76
2022/01/01 00:56:47;;;;;;;29.38;7.75;;;14.10;99.90;;;;;;5084877;28;20246;-75
2022/01/01 00:59:15;;;;;;;21.25;8.05;;;14.20;99.90;;;;;;5084020;28;20028;-75
2022/01/01 01:01:41;;;;;;;25.67;7.55;;;14.10;99.90;;;;;;5084708;28;20024;-75
2022/01/01 01:04:06;;;;;;;21.27;6.90;;;14.20;99.90;;;;;;5084319;28;20016;-76
2022/01/01 01:06:32;;;;;;;19.38;6.82;;;14.20;99.90;;;;;;5084015;28;20027;-76
2022/01/01 01:09:00;;;;;;;24.85;7.43;;;14.20;99.90;;;;;;5084460;28;20063;-75
2022/01/01 01:11:27;;;;;;;17.67;6.22;;;14.20;99.90;;;;;;5084121;28;20028;-74
2022/01/01 01:13:58;;;;;;;19.52;6.32;;;14.20;99.90;;;;;;5066822;28;20016;-75
2022/01/01 01:16:25;;;;;;;22.65;7.03;;;14.20;99.90;;;;;;5083072;28;20020;-77
2022/01/01 01:18:53;;;;;;;16.40;5.88;;;14.30;99.90;;;;;;5083623;28;20103;-77
2022/01/01 01:21:20;;;;;;;19.75;5.95;;;14.30;99.90;;;;;;5083911;28;20056;-74
2022/01/01 01:23:48;;;;;;;23.05;6.53;;;14.30;99.90;;;;;;5066384;28;20062;-76
2022/01/01 01:26:13;;;;;;;17.63;6.35;;;14.30;99.90;;;;;;5083597;28;20024;-76
2022/01/01 01:28:46;;;;;;;28.50;7.70;;;14.30;99.90;;;;;;5083867;28;20019;-76
2022/01/01 01:31:12;;;;;;;22.15;6.93;;;14.30;99.90;;;;;;5082809;28;20032;-77
2022/01/01 01:33:37;;;;;;;24.55;7.65;;;14.30;99.90;;;;;;5083508;28;20055;-76
2022/01/01 01:36:03;;;;;;;18.73;6.50;;;14.30;99.90;;;;;;5066271;28;20063;-77
2022/01/01 01:38:29;;;;;;;19.60;6.43;;;14.30;99.90;;;;;;5082446;28;20013;-76
2022/01/01 01:40:54;;;;;;;20.10;6.15;;;14.20;99.90;;;;;;5066067;28;20020;-76
2022/01/01 01:43:21;;;;;;;20.52;6.35;;;14.20;99.90;;;;;;5084098;28;20020;-75
2022/01/01 01:45:48;;;;;;;21.77;6.35;;;14.30;99.90;;;;;;5083149;28;20039;-75
2022/01/01 01:48:13;;;;;;;23.70;6.20;;;14.30;99.90;;;;;;5084048;28;20013;-76
2022/01/01 01:50:40;;;;;;;24.05;7.05;;;14.20;99.90;;;;;;5064670;28;20066;-76
2022/01/01 01:53:07;;;;;;;19.48;6.15;;;14.20;99.90;;;;;;5084009;28;20032;-76
2022/01/01 01:55:33;;;;;;;24.80;6.05;;;14.20;99.90;;;;;;5082867;28;20100;-76
2022/01/01 01:57:59;;;;;;;21.40;6.47;;;14.20;99.90;;;;;;5083401;28;20024;-77
2022/01/01 02:03:11;;;;;;;18.27;5.90;;;14.20;99.90;;;;;;5082888;28;20048;-76
2022/01/01 02:05:38;;;;;;;17.85;6.22;;;14.20;99.90;;;;;;5083732;28;20074;-77
2022/01/01 02:08:05;;;;;;;20.80;6.28;;;14.20;99.90;;;;;;5083867;28;20204;-77
2022/01/01 02:10:33;;;;;;;25.15;6.57;;;14.20;99.90;;;;;;5082603;28;20043;-76
2022/01/01 02:12:59;;;;;;;22.33;6.82;;;14.10;99.90;;;;;;5082739;28;20016;-77
2022/01/01 02:18:15;;;;;;;25.60;7.10;;;14.00;99.90;;;;;;5068538;28;20087;-77
2022/01/01 02:20:42;;;;;;;25.00;6.60;;;14.00;99.90;;;;;;5087540;28;20055;-77
2022/01/01 02:23:13;;;;;;;30.85;8.05;;;13.90;99.90;;;;;;5097078;28;20013;-77
2022/01/01 02:25:40;;;;;;;28.87;7.83;;;13.80;99.90;;;;;;5095597;28;20020;-76
2022/01/01 02:28:09;;;;;;;21.58;6.60;;;13.80;99.90;;;;;;5092627;28;20256;-77
2022/01/01 02:30:35;;;;;;;25.80;7.05;;;13.80;99.90;;;;;;5090734;28;20041;-76
2022/01/01 02:33:00;;;;;;;29.25;7.85;;;13.70;99.90;;;;;;5065464;28;20113;-77
2022/01/01 02:35:26;;;;;;;32.88;8.23;;;13.70;99.90;;;;;;5083556;28;20039;-76
2022/01/01 02:37:52;;;;;;;26.70;7.82;;;13.60;99.90;;;;;;5083938;28;20046;-76
2022/01/01 02:40:18;;;;;;;34.53;7.70;;;13.60;99.90;;;;;;5087320;28;20138;-77
2022/01/01 02:42:43;;;;;;;31.92;8.30;;;13.50;99.90;;;;;;5086091;28;20184;-77
2022/01/01 02:45:11;;;;;;;27.35;7.10;;;13.50;99.90;;;;;;5086916;28;20027;-77
2022/01/01 02:47:37;;;;;;;23.77;7.72;;;13.40;99.90;;;;;;5085488;28;20029;-76
2022/01/01 02:50:04;;;;;;;29.10;7.63;;;13.40;99.90;;;;;;5085815;28;20036;-77
2022/01/01 02:52:31;;;;;;;27.15;6.90;;;13.40;99.90;;;;;;5085453;28;20016;-77
2022/01/01 02:54:57;;;;;;;21.30;6.72;;;13.40;99.90;;;;;;5086726;28;20227;-76
2022/01/01 02:57:22;;;;;;;23.83;6.32;;;13.40;99.90;;;;;;5069180;28;20024;-77
2022/01/01 02:59:48;;;;;;;18.40;6.63;;;13.40;99.90;;;;;;5086250;28;20024;-76
2022/01/01 03:02:14;;;;;;;22.10;6.43;;;13.40;99.90;;;;;;5086591;28;20295;-77
2022/01/01 03:04:40;;;;;;;27.42;6.35;;;13.50;99.90;;;;;;5086847;28;20025;-76
2022/01/01 03:07:07;;;;;;;22.58;6.55;;;13.50;99.90;;;;;;5069236;28;20055;-76
2022/01/01 03:09:35;;;;;;;23.55;6.45;;;13.50;99.90;;;;;;5086760;28;20052;-76
2022/01/01 03:12:04;;;;;;;22.45;6.32;;;13.60;99.90;;;;;;5085795;28;20326;-78
2022/01/01 03:14:30;;;;;;;23.35;6.22;;;13.60;99.90;;;;;;5086034;28;20028;-76
2022/01/01 03:16:56;;;;;;;27.95;7.10;;;13.60;99.90;;;;;;5085987;28;20374;-76
2022/01/01 03:19:22;;;;;;;26.67;6.85;;;13.60;99.90;;;;;;5086851;28;20242;-77
2022/01/01 03:21:47;;;;;;;28.98;7.00;;;13.60;99.90;;;;;;5086395;28;20066;-76
2022/01/01 03:24:13;;;;;;;18.85;6.65;;;13.70;99.90;;;;;;5087040;28;20072;-76
2022/01/01 03:26:39;;;;;;;28.40;6.57;;;13.60;99.90;;;;;;5086939;28;20314;-76
2022/01/01 03:29:05;;;;;;;19.95;6.18;;;13.70;99.90;;;;;;5085244;28;20025;-77
2022/01/01 03:31:31;;;;;;;23.55;6.55;;;13.70;99.90;;;;;;5085346;28;20076;-76
2022/01/01 03:33:58;;;;;;;23.23;6.35;;;13.70;99.90;;;;;;5084658;28;20291;-76
2022/01/01 03:36:25;;;;;;;27.40;5.93;;;13.70;99.90;;;;;;5086602;28;20022;-75
2022/01/01 03:38:50;;;;;;;25.30;7.18;;;13.70;99.90;;;;;;5085040;28;20025;-76
2022/01/01 03:41:16;;;;;;;20.55;6.07;;;13.70;99.90;;;;;;5085523;28;20285;-76
2022/01/01 03:43:42;;;;;;;28.65;6.93;;;13.60;99.90;;;;;;5085226;28;20092;-78
2022/01/01 03:46:08;;;;;;;19.83;6.80;;;13.60;99.90;;;;;;5085932;28;20019;-76
2022/01/01 03:48:33;;;;;;;20.17;5.47;;;13.60;99.90;;;;;;5086114;28;20025;-76
2022/01/01 03:50:59;;;;;;;25.98;6.60;;;13.60;99.90;;;;;;5086458;28;20029;-76
2022/01/01 03:53:25;;;;;;;23.77;6.10;;;13.60;99.90;;;;;;5084897;28;20028;-77
2022/01/01 03:55:52;;;;;;;27.27;6.28;;;13.60;99.90;;;;;;5084814;28;20060;-76
2022/01/01 03:58:17;;;;;;;25.13;6.63;;;13.60;99.90;;;;;;5084464;28;20377;-76
2022/01/01 04:00:43;;;;;;;19.52;6.18;;;13.60;99.90;;;;;;5068035;28;20024;-76
2022/01/01 04:03:11;;;;;;;20.48;5.55;;;13.50;99.90;;;;;;5084446;28;20028;-76
2022/01/01 04:05:40;;;;;;;19.88;5.57;;;13.50;99.90;;;;;;5084903;28;20031;-76
2022/01/01 04:08:06;;;;;;;23.02;6.70;;;13.50;99.90;;;;;;5085884;28;20044;-76
2022/01/01 04:10:32;;;;;;;20.80;6.28;;;13.60;99.90;;;;;;5085643;28;20028;-77
2022/01/01 04:12:59;;;;;;;22.50;6.05;;;13.50;99.90;;;;;;5084440;28;20020;-76
2022/01/01 04:15:27;;;;;;;21.73;6.03;;;13.50;99.90;;;;;;5085933;28;20028;-76
2022/01/01 04:17:58;;;;;;;24.65;5.90;;;13.50;99.90;;;;;;5085726;28;20070;-76
2022/01/01 04:20:24;;;;;;;21.80;5.65;;;13.60;99.90;;;;;;5084482;28;20024;-76
2022/01/01 04:22:52;;;;;;;20.27;5.80;;;13.60;99.90;;;;;;5084461;28;20096;-76
2022/01/01 04:25:18;;;;;;;29.20;6.40;;;13.70;99.90;;;;;;5084788;28;20347;-76
2022/01/01 04:27:44;;;;;;;23.70;6.38;;;13.60;99.90;;;;;;5084746;28;20024;-76
2022/01/01 04:30:09;;;;;;;19.60;6.00;;;13.60;99.90;;;;;;5084155;28;20054;-76
2022/01/01 04:32:35;;;;;;;23.45;6.70;;;13.60;99.90;;;;;;5083804;28;20020;-77
2022/01/01 04:35:01;;;;;;;23.85;6.72;;;13.50;99.90;;;;;;5085426;28;20318;-77
2022/01/01 04:37:26;;;;;;;17.10;5.65;;;13.60;99.90;;;;;;5085158;28;20083;-76
2022/01/01 04:39:58;;;;;;;27.10;6.75;;;13.60;99.90;;;;;;5085308;28;20012;-76
2022/01/01 04:42:24;;;;;;;26.52;6.30;;;13.60;99.90;;;;;;5084254;28;20311;-76
2022/01/01 04:44:50;;;;;;;26.90;6.50;;;13.50;99.90;;;;;;5084384;28;20009;-76
2022/01/01 04:47:16;;;;;;;27.27;6.35;;;13.50;99.90;;;;;;5085294;28;20197;-75
2022/01/01 04:49:41;;;;;;;23.20;5.60;;;13.50;99.90;;;;;;5084623;28;20060;-77
2022/01/01 04:52:07;;;;;;;29.17;6.57;;;13.50;99.90;;;;;;5084632;28;20189;-77
2022/01/01 04:54:34;;;;;;;23.73;5.85;;;13.50;99.90;;;;;;5082448;28;20091;-77
2022/01/01 04:57:00;;;;;;;23.13;6.00;;;13.50;99.90;;;;;;5067397;28;20104;-77
2022/01/01 04:59:25;;;;;;;24.05;5.35;;;13.60;99.90;;;;;;5084653;28;20054;-77
2022/01/01 05:01:51;;;;;;;23.17;6.38;;;13.60;99.90;;;;;;5084281;28;20021;-76
2022/01/01 05:04:17;;;;;;;25.65;5.72;;;13.60;99.90;;;;;;5083262;28;20059;-76
2022/01/01 05:06:43;;;;;;;20.08;5.80;;;13.60;99.90;;;;;;5083321;28;20066;-77
2022/01/01 05:09:09;;;;;;;20.50;5.85;;;13.60;99.90;;;;;;5084789;28;20091;-76
2022/01/01 05:11:35;;;;;;;24.38;6.32;;;13.50;99.90;;;;;;5084655;28;20196;-76
2022/01/01 05:14:00;;;;;;;18.42;6.05;;;13.60;99.90;;;;;;5083570;28;20017;-76
2022/01/01 05:16:26;;;;;;;21.65;6.32;;;13.60;99.90;;;;;;5083156;28;20028;-77
2022/01/01 05:18:52;;;;;;;19.45;5.63;;;13.60;99.90;;;;;;5084732;28;20057;-76
2022/01/01 05:21:17;;;;;;;24.70;6.15;;;13.50;99.90;;;;;;5089056;28;20028;-77
2022/01/01 05:23:43;;;;;;;23.48;5.57;;;13.50;99.90;;;;;;5098776;28;20084;-76
2022/01/01 05:26:09;;;;;;;21.60;5.60;;;13.60;99.90;;;;;;5096821;28;20036;-75
2022/01/01 05:28:34;;;;;;;17.95;5.70;;;13.50;99.90;;;;;;5094256;28;20074;-76
2022/01/01 05:31:00;;;;;;;20.45;5.95;;;13.50;99.90;;;;;;5089869;28;20048;-77
2022/01/01 05:33:26;;;;;;;26.92;5.80;;;13.50;99.90;;;;;;5084671;28;20235;-77
2022/01/01 05:35:51;;;;;;;22.73;5.55;;;13.50;99.90;;;;;;5066039;28;20052;-76
2022/01/01 05:38:17;;;;;;;25.83;5.70;;;13.50;99.90;;;;;;5083240;28;20019;-76
2022/01/01 05:40:43;;;;;;;17.15;4.82;;;13.50;99.90;;;;;;5065898;28;20036;-75
2022/01/01 05:43:13;;;;;;;22.85;5.40;;;13.50;99.90;;;;;;5084466;28;20024;-76
2022/01/01 05:45:41;;;;;;;15.88;5.00;;;13.50;99.90;;;;;;5083003;28;20095;-76
2022/01/01 05:48:07;;;;;;;18.55;5.22;;;13.50;99.90;;;;;;5083593;28;20024;-76
2022/01/01 05:50:32;;;;;;;19.42;5.30;;;13.40;99.90;;;;;;5083839;28;20068;-76
2022/01/01 05:52:59;;;;;;;20.20;4.85;;;13.50;99.90;;;;;;5083906;28;20013;-75
2022/01/01 05:55:24;;;;;;;21.02;4.30;;;13.50;99.90;;;;;;5082348;28;20309;-73
2022/01/01 05:57:50;;;;;;;19.08;4.50;;;13.50;99.90;;;;;;5083109;28;20029;-74
2022/01/01 06:00:16;;;;;;;13.20;3.80;;;13.60;99.90;;;;;;5065744;28;20274;-76
2022/01/01 06:02:42;;;;;;;13.15;4.15;;;13.70;99.90;;;;;;5083644;28;20323;-74
2022/01/01 06:05:09;;;;;;;15.60;4.50;;;13.80;99.90;;;;;;5082465;28;20295;-74
2022/01/01 06:07:35;;;;;;;19.02;4.25;;;13.90;99.90;;;;;;5065945;28;20025;-77
2022/01/01 06:10:01;;;;;;;22.55;4.30;;;14.00;99.90;;;;;;5083454;28;20043;-76
2022/01/01 06:12:27;;;;;;;18.52;4.30;;;14.00;99.90;;;;;;5083143;28;20296;-76
2022/01/01 06:14:53;;;;;;;12.85;4.63;;;14.00;99.90;;;;;;5082107;28;20095;-76
2022/01/01 06:17:19;;;;;;;16.58;4.03;;;14.00;99.90;;;;;;5082649;28;20028;-76
2022/01/01 06:19:44;;;;;;;19.63;4.10;;;14.10;99.90;;;;;;5082738;28;20020;-76
2022/01/01 06:22:10;;;;;;;20.52;4.80;;;14.10;99.90;;;;;;5083422;28;20296;-77
2022/01/01 06:24:36;;;;;;;14.18;4.40;;;14.00;99.90;;;;;;5083816;28;20066;-76
2022/01/01 06:27:02;;;;;;;16.52;4.55;;;14.00;99.90;;;;;;5065751;28;20059;-77
2022/01/01 06:29:27;;;;;;;12.70;3.75;;;14.00;99.90;;;;;;5082590;28;20151;-76
2022/01/01 06:31:53;;;;;;;20.88;4.20;;;14.10;99.90;;;;;;5083549;28;20025;-76
2022/01/01 06:34:19;;;;;;;23.35;4.75;;;14.00;99.90;;;;;;5083234;28;20056;-76
2022/01/01 06:36:44;;;;;;;24.35;4.57;;;14.10;99.90;;;;;;5083428;28;20017;-77
2022/01/01 06:39:10;;;;;;;18.05;4.28;;;14.00;99.90;;;;;;5083632;28;20134;-76
2022/01/01 06:41:36;;;;;;;20.42;4.40;;;14.00;99.90;;;;;;5082953;28;20016;-76
2022/01/01 06:44:01;;;;;;;18.95;4.25;;;14.00;99.90;;;;;;5082582;28;20036;-76
2022/01/01 06:46:27;;;;;;;18.02;3.90;;;14.10;99.90;;;;;;5081916;28;20017;-76
2022/01/01 06:48:53;;;;;;;19.77;4.25;;;14.10;99.90;;;;;;5065651;28;20043;-76
2022/01/01 06:51:19;;;;;;;18.10;4.20;;;14.10;99.90;;;;;;5082839;28;20067;-75
2022/01/01 06:53:44;;;;;;;17.30;4.30;;;14.00;99.90;;;;;;5082413;28;20059;-76
2022/01/01 06:56:10;;;;;;;20.52;4.93;;;14.00;99.90;;;;;;5081996;28;20032;-77
2022/01/01 06:58:38;;;;;;;19.48;4.40;;;14.00;99.90;;;;;;5082718;28;20042;-77
2022/01/01 07:01:04;;;;;;;19.00;4.30;;;13.90;99.90;;;;;;5083483;28;20024;-76
2022/01/01 07:03:30;;;;;;;20.77;4.32;;;13.90;99.90;;;;;;5083288;28;20023;-76
2022/01/01 07:05:56;;;;;;;20.02;4.10;;;13.90;99.90;;;;;;5083392;28;20303;-76
2022/01/01 07:08:21;;;;;;;16.25;3.33;;;13.90;99.90;;;;;;5065593;28;20051;-77
2022/01/01 07:10:47;;;;;;;22.23;4.90;;;13.90;99.90;;;;;;5082422;28;20244;-76
2022/01/01 07:13:14;;;;;;;15.07;3.47;;;14.10;99.90;;;;;;5083275;28;20028;-77
2022/01/01 07:15:40;;;;;;;19.25;4.22;;;14.10;99.90;;;;;;5083105;28;20031;-76
2022/01/01 07:18:06;;;;;;;19.55;4.03;;;14.00;99.90;;;;;;5082030;28;20024;-77
2022/01/01 07:20:31;;;;;;;25.40;4.35;;;14.10;99.90;;;;;;5064927;28;20216;-76
2022/01/01 07:22:57;;;;;;;14.82;3.58;;;14.00;99.90;;;;;;5083165;28;20024;-77
2022/01/01 07:25:23;;;;;;;18.33;3.72;;;14.10;99.90;;;;;;5085481;28;20238;-77
2022/01/01 07:27:48;;;;;;;24.67;4.38;;;14.10;99.90;;;;;;5087065;28;20242;-77
2022/01/01 07:30:14;;;;;;;24.20;4.22;;;14.10;99.90;;;;;;5086318;28;20040;-76
2022/01/01 07:32:41;;;;;;;21.75;4.13;;;14.20;99.90;;;;;;5085672;28;20078;-76
2022/01/01 07:35:08;;;;;;;23.90;4.35;;;14.20;99.90;;;;;;5084895;28;20028;-75
2022/01/01 07:37:34;;;;;;;17.90;4.32;;;14.10;99.90;;;;;;5085801;28;20017;-76
2022/01/01 07:40:00;;;;;;;16.80;3.88;;;14.10;99.90;;;;;;5086205;28;20013;-76
2022/01/01 07:42:26;;;;;;;20.90;3.97;;;14.10;99.90;;;;;;5086369;28;20032;-77
2022/01/01 07:44:51;;;;;;;14.52;3.33;;;14.10;99.90;;;;;;5085530;28;20337;-76
2022/01/01 07:47:17;;;;;;;15.35;3.60;;;14.00;99.90;;;;;;5086199;28;20071;-76
2022/01/01 07:49:43;;;;;;;17.70;3.80;;;14.00;99.90;;;;;;5086491;28;20142;-76
2022/01/01 07:52:09;;;;;;;22.25;4.00;;;14.10;99.90;;;;;;5084761;28;20241;-75
2022/01/01 07:54:35;;;;;;;15.68;3.92;;;14.10;99.90;;;;;;5086597;28;20024;-76
2022/01/01 07:57:00;;;;;;;21.83;4.35;;;14.00;99.90;;;;;;5088043;28;20268;-76
2022/01/01 07:59:26;;;;;;;18.50;4.10;;;14.00;99.90;;;;;;5087048;28;20197;-77
2022/01/01 08:01:52;;;;;;;18.73;4.82;;;13.90;99.90;;;;;;5086291;28;20024;-76
2022/01/01 08:04:17;;;;;;;21.98;4.60;;;13.90;99.90;;;;;;5084759;28;20021;-77
2022/01/01 08:06:43;;;;;;;19.52;4.70;;;14.00;99.90;;;;;;5084711;28;20021;-76
2022/01/01 08:09:08;;;;;;;23.63;4.57;;;14.00;99.90;;;;;;5085620;28;20020;-76
2022/01/01 08:11:34;;;;;;;20.38;4.43;;;14.00;99.90;;;;;;5084900;28;20095;-77
2022/01/01 08:14:00;;;;;;;20.83;4.05;;;14.00;99.90;;;;;;5084663;28;20349;-76
2022/01/01 08:16:26;;;;;;;31.13;4.50;;;14.00;99.90;;;;;;5067998;28;20091;-77
2022/01/01 08:18:51;;;;;;;17.30;3.90;;;14.10;99.90;;;;;;5084645;28;20023;-77
2022/01/01 08:21:17;;;;;;;18.00;3.92;;;14.10;99.90;;;;;;5086121;28;20047;-76
2022/01/01 08:23:43;;;;;;;20.65;4.38;;;14.10;99.90;;;;;;5096286;28;20008;-76
2022/01/01 08:26:08;;;;;;;17.17;4.22;;;14.10;99.90;;;;;;5098083;28;20091;-76
2022/01/01 08:28:34;;;;;;;17.98;3.90;;;14.10;99.90;;;;;;5097212;28;20038;-77
2022/01/01 08:31:00;;;;;;;22.27;4.82;;;14.10;99.90;;;;;;5096642;28;20092;-76
2022/01/01 08:33:25;;;;;;;28.02;4.50;;;14.10;99.90;;;;;;5095790;28;20057;-77
2022/01/01 08:35:51;;;;;;;23.90;4.65;;;14.00;99.90;;;;;;5088901;28;20024;-75
2022/01/01 08:38:16;;;;;;;22.92;4.50;;;14.00;99.90;;;;;;5070193;28;20208;-76
2022/01/01 08:40:43;;;;;;;25.92;5.03;;;13.90;99.90;;;;;;5084944;28;20020;-76
2022/01/01 08:43:08;;;;;;;21.90;4.55;;;14.00;99.90;;;;;;5083793;28;20208;-77
2022/01/01 08:45:36;;;;;;;18.35;4.65;;;14.10;99.90;;;;;;5085141;28;20020;-77
2022/01/01 08:48:02;;;;;;;26.58;4.43;;;14.10;99.90;;;;;;5047338;28;20207;-76
2022/01/01 08:50:28;;;;;;;24.55;4.13;;;14.00;99.90;;;;;;5064068;28;20142;-76
2022/01/01 08:52:54;;;;;;;19.08;3.80;;;13.90;99.90;;;;;;5064660;28;20334;-77
2022/01/01 08:55:19;;;;;;;20.85;4.13;;;13.90;99.90;;;;;;5064828;28;20079;-77
2022/01/01 08:57:45;;;;;;;23.45;4.35;;;13.90;99.90;;;;;;5065234;28;20025;-77
2022/01/01 09:00:12;;;;;;;18.77;3.83;;;14.00;99.90;;;;;;5064319;28;20327;-76
2022/01/01 09:02:39;;;;;;;24.05;4.22;;;14.10;99.90;;;;;;5063214;28;20016;-76
2022/01/01 09:05:05;;;;;;;21.08;4.20;;;14.00;99.90;;;;;;5064456;28;20312;-76
2022/01/01 09:07:31;;;;;;;31.52;5.18;;;14.00;99.90;;;;;;5065088;28;20017;-76
2022/01/01 09:09:59;;;;;;;22.27;4.82;;;14.00;99.90;;;;;;5064736;28;20088;-76
2022/01/01 09:12:26;;;;;;;25.50;5.03;;;14.00;99.90;;;;;;5063748;28;20044;-76
2022/01/01 09:14:52;;;;;;;27.50;4.32;;;14.00;99.90;;;;;;5063151;28;20035;-76
2022/01/01 09:17:18;;;;;;;22.50;4.47;;;14.00;99.90;;;;;;5064738;28;20017;-76
2022/01/01 09:19:44;;;;;;;26.73;4.78;;;14.00;99.90;;;;;;5064493;28;20029;-76
2022/01/01 09:22:09;;;;;;;32.80;5.00;;;14.00;99.90;;;;;;5063516;28;20028;-76
2022/01/01 09:24:35;;;;;;;27.05;4.78;;;14.00;99.90;;;;;;5064475;28;20036;-77
2022/01/01 09:27:02;;;;;;;27.55;4.70;;;14.10;99.90;;;;;;5064156;28;20017;-76
2022/01/01 09:29:27;;;;;;;19.85;3.95;;;14.10;99.90;;;;;;5063237;28;20098;-78
2022/01/01 09:31:53;;;;;;;28.92;4.50;;;14.10;99.90;;;;;;5079114;28;20032;-74
2022/01/01 09:34:19;;;;;;;28.73;4.85;;;14.10;99.90;;;;;;5083754;28;20045;-76
2022/01/01 09:36:46;;;;;;;34.33;4.50;;;14.00;99.90;;;;;;5084472;28;20088;-76
2022/01/01 09:39:11;;;;;;;29.10;4.82;;;14.00;99.90;;;;;;5084099;28;20227;-78
2022/01/01 09:41:41;;;;;;;37.67;5.13;;;13.80;99.90;;;;;;5082884;28;20017;-78
2022/01/01 09:44:14;;;;;;;28.52;4.88;;;13.80;99.90;;;;;;5082443;28;20321;-78
2022/01/01 09:46:42;;;;;;;29.23;4.50;;;13.70;99.90;;;;;;5083742;28;20016;-75
2022/01/01 09:49:08;;;;;;;30.73;5.30;;;13.70;99.90;;;;;;5082568;28;20028;-77
2022/01/01 09:51:35;;;;;;;27.92;4.68;;;13.60;99.90;;;;;;5084097;28;20016;-76
2022/01/01 09:54:01;;;;;;;32.50;5.47;;;13.60;99.90;;;;;;5082543;28;20027;-77
2022/01/01 09:56:27;;;;;;;22.95;4.68;;;13.60;99.90;;;;;;5083844;28;20028;-76
2022/01/01 09:58:53;;;;;;;34.40;5.55;;;13.70;99.90;;;;;;5084146;28;20088;-76
2022/01/01 10:01:19;;;;;;;25.58;4.47;;;13.70;99.90;;;;;;5082426;28;20065;-77
2022/01/01 10:03:50;;;;;;;30.85;4.85;;;13.70;99.90;;;;;;5082158;28;20021;-76
2022/01/01 10:06:18;;;;;;;37.13;5.35;;;13.80;99.90;;;;;;5082403;28;20016;-76
2022/01/01 10:08:54;;;;;;;28.50;5.13;;;13.80;99.90;;;;;;5083133;28;20033;-78
2022/01/01 10:11:20;;;;;;;40.33;5.47;;;13.80;99.90;;;;;;5083986;28;20028;-78
2022/01/01 10:13:46;;;;;;;31.92;6.25;;;13.70;99.90;;;;;;5082544;28;20025;-76
2022/01/01 10:16:13;;;;;;;32.50;5.68;;;13.80;99.90;;;;;;5083458;28;20339;-76
2022/01/01 10:18:42;;;;;;;35.25;5.82;;;13.70;99.90;;;;;;5066380;28;20047;-76
2022/01/01 10:21:10;;;;;;;32.42;4.90;;;13.70;99.90;;;;;;5083611;28;20017;-77
2022/01/01 10:23:38;;;;;;;36.78;5.53;;;13.70;99.90;;;;;;5083672;28;20028;-76
2022/01/01 10:29:23;;;;;;;31.05;4.93;;;13.90;99.90;;;;;;5072708;28;20139;-77
2022/01/01 10:32:15;;;;;;;31.67;5.88;;;13.80;99.90;;;;;;5082280;28;20203;-77
2022/01/01 10:34:45;;;;;;;37.70;6.05;;;13.90;99.90;;;;;;5081979;28;20049;-76
2022/01/01 10:37:13;;;;;;;38.55;6.28;;;13.90;99.90;;;;;;5065734;28;20020;-77
2022/01/01 10:39:55;;;;;;;38.45;5.50;;;14.00;99.90;;;;;;5082476;28;20095;-77
2022/01/01 10:42:21;;;;;;;27.77;6.03;;;14.00;99.90;;;;;;5065809;28;20020;-77
2022/01/01 10:44:50;;;;;;;38.55;5.18;;;14.00;99.90;;;;;;5082465;28;20028;-76
2022/01/01 10:47:26;;;;;;;32.88;5.38;;;14.00;99.90;;;;;;5082445;28;20013;-76
2022/01/01 10:50:03;;;;;;;36.88;6.00;;;14.10;99.90;;;;;;5081993;28;20257;-76
2022/01/01 10:52:30;;;;;;;30.33;6.05;;;14.10;99.90;;;;;;5083394;28;20319;-76
2022/01/01 10:54:59;;;;;;;35.42;5.90;;;14.10;99.90;;;;;;5083281;28;20024;-76
2022/01/01 10:57:42;;;;;;;39.10;5.38;;;14.10;99.90;;;;;;5082475;28;20024;-76
2022/01/01 11:00:13;;;;;;;42.65;5.78;;;14.10;99.90;;;;;;5086544;28;20020;-78
2022/01/01 11:02:51;;;;;;;37.63;6.78;;;14.10;99.90;;;;;;5084154;28;20027;-75
2022/01/01 11:05:30;;;;;;;36.05;5.60;;;14.20;99.90;;;;;;5070068;28;20054;-77
2022/01/01 11:07:57;;;;;;;33.30;5.38;;;14.20;99.90;;;;;;5069346;28;20314;-76
2022/01/01 11:10:23;;;;;;;37.28;6.55;;;14.20;99.90;;;;;;5087053;28;20036;-75
2022/01/01 11:12:50;;;;;;;35.13;6.10;;;14.30;99.90;;;;;;5086653;28;20017;-75
2022/01/01 11:15:15;;;;;;;41.22;6.57;;;14.30;99.90;;;;;;5069167;28;20024;-75
2022/01/01 11:17:42;;;;;;;46.08;6.68;;;14.30;99.90;;;;;;5087114;28;20101;-76
2022/01/01 11:20:09;;;;;;;38.75;6.80;;;14.30;99.90;;;;;;5085607;28;20020;-77
2022/01/01 11:22:35;;;;;;;36.25;5.70;;;14.40;99.90;;;;;;5086818;28;20016;-77
2022/01/01 11:25:02;;;;;;;35.72;6.65;;;14.50;99.90;;;;;;5091489;28;20028;-75
2022/01/01 11:27:28;;;;;;;40.63;5.80;;;14.50;99.90;;;;;;5099301;28;20040;-76
2022/01/01 11:29:55;;;;;;;41.15;6.90;;;14.50;99.90;;;;;;5098527;28;20054;-75
2022/01/01 11:32:24;;;;;;;47.03;8.05;;;14.50;99.90;;;;;;5078220;28;20230;-77
2022/01/01 11:34:54;;;;;;;51.78;7.22;;;14.50;99.90;;;;;;5091743;28;20094;-78
2022/01/01 11:37:22;;;;;;;48.25;7.28;;;14.50;99.90;;;;;;5086939;28;20040;-78
2022/01/01 11:39:54;;;;;;;49.33;7.47;;;14.60;99.90;;;;;;5085655;28;20254;-77
2022/01/01 11:42:20;;;;;;;46.70;6.90;;;14.60;99.90;;;;;;5085092;28;20263;-76
2022/01/01 11:44:52;;;;;;;47.10;6.40;;;14.70;99.90;;;;;;5068749;28;20020;-75
2022/01/01 11:47:20;;;;;;;38.70;6.60;;;14.70;99.90;;;;;;5085161;28;20023;-76
2022/01/01 11:49:47;;;;;;;52.42;8.13;;;14.80;99.90;;;;;;5084793;28;20036;-76
2022/01/01 11:52:34;;;;;;;49.95;7.45;;;14.80;99.90;;;;;;5085095;28;20087;-76
2022/01/01 11:55:10;;;;;;;43.25;6.60;;;14.90;99.90;;;;;;5071294;28;20024;-76
2022/01/01 11:57:36;;;;;;;53.35;7.80;;;14.90;99.90;;;;;;5069159;28;20039;-76
2022/01/01 12:00:11;;;;;;;46.95;7.60;;;15.00;99.90;;;;;;5085018;28;20270;-75
2022/01/01 12:02:41;;;;;;;45.33;7.25;;;15.00;99.90;;;;;;5067825;28;20017;-76
2022/01/01 12:05:18;;;;;;;43.95;6.75;;;15.10;99.90;;;;;;5084354;28;20016;-74
2022/01/01 12:07:47;;;;;;;43.95;7.30;;;15.30;99.90;;;;;;5068723;28;20384;-76
2022/01/01 12:10:16;;;;;;;42.88;6.53;;;15.40;99.90;;;;;;5085504;28;20036;-75
2022/01/01 12:12:47;;;;;;;50.35;7.53;;;15.50;99.90;;;;;;5086076;28;20012;-74
2022/01/01 12:15:51;;;;;;;45.00;7.05;;;15.50;99.90;;;;;;5086140;28;20303;-78
2022/01/01 12:18:20;;;;;;;41.70;6.95;;;15.40;99.90;;;;;;5073013;28;20020;-75
2022/01/01 12:21:01;;;;;;;48.17;7.00;;;15.40;99.90;;;;;;5084858;28;20016;-75
2022/01/01 12:23:36;;;;;;;44.08;7.88;;;15.40;99.90;;;;;;5084623;28;20024;-74
2022/01/01 12:26:08;;;;;;;49.03;7.45;;;15.40;99.90;;;;;;5052415;28;20224;-76
2022/01/01 12:28:36;;;;;;;;;;;15.40;99.90;;;;;;5084637;28;20031;-76
2022/01/01 12:31:14;;;;;;;49.30;7.60;;;15.50;99.90;;;;;;5084263;28;19908;-76
2022/01/01 12:33:50;;;;;;;50.92;6.30;;;15.60;99.90;;;;;;5085000;28;20048;-77
2022/01/01 12:36:18;;;;;;;49.13;8.05;;;15.60;99.90;;;;;;5084493;28;20028;-77
2022/01/01 12:38:54;;;;;;;43.08;6.43;;;15.70;99.90;;;;;;5084507;28;20077;-75
2022/01/01 12:41:23;;;;;;;53.53;8.10;;;15.70;99.90;;;;;;5067538;28;20029;-77
2022/01/01 12:43:52;;;;;;;55.35;7.18;;;15.60;99.90;;;;;;5084358;28;20127;-76